sensor_id;sensor_type;location;lat;lon;timestamp;P1;durP1;ratioP1;P2;durP2;ratioP2
55784;SDS011;41709;52.536;5.688;2023-05-23T00:00:57;18.15;;;6.95;;
55784;SDS011;41709;52.536;5.688;2023-05-23T00:03:23;14.48;;;7.60;;
55784;SDS011;41709;52.536;5.688;2023-05-23T00:05:49;13.55;;;6.93;;
55784;SDS011;41709;52.536;5.688;2023-05-23T00:08:15;11.27;;;6.38;;
55784;SDS011;41709;52.536;5.688;2023-05-23T00:10:41;12.25;;;7.15;;
55784;SDS011;41709;52.536;5.688;2023-05-23T00:13:07;14.75;;;6.43;;
55784;SDS011;41709;52.536;5.688;2023-05-23T00:15:33;17.45;;;7.60;;
55784;SDS011;41709;52.536;5.688;2023-05-23T00:18:01;15.30;;;7.20;;
55784;SDS011;41709;52.536;5.688;2023-05-23T00:20:27;14.02;;;7.50;;
55784;SDS011;41709;52.536;5.688;2023-05-23T00:22:54;16.73;;;7.53;;
55784;SDS011;41709;52.536;5.688;2023-05-23T00:25:22;26.38;;;10.27;;
55784;SDS011;41709;52.536;5.688;2023-05-23T00:27:48;17.42;;;8.38;;
55784;SDS011;41709;52.536;5.688;2023-05-23T00:30:14;24.42;;;9.15;;
55784;SDS011;41709;52.536;5.688;2023-05-23T00:32:40;20.13;;;8.45;;
55784;SDS011;41709;52.536;5.688;2023-05-23T00:35:05;20.58;;;10.05;;
55784;SDS011;41709;52.536;5.688;2023-05-23T00:37:31;19.08;;;7.97;;
55784;SDS011;41709;52.536;5.688;2023-05-23T00:39:58;16.33;;;7.80;;
55784;SDS011;41709;52.536;5.688;2023-05-23T00:42:24;15.90;;;6.72;;
55784;SDS011;41709;52.536;5.688;2023-05-23T00:44:49;12.90;;;7.53;;
55784;SDS011;41709;52.536;5.688;2023-05-23T00:47:15;17.05;;;6.53;;
55784;SDS011;41709;52.536;5.688;2023-05-23T00:49:41;11.52;;;6.80;;
55784;SDS011;41709;52.536;5.688;2023-05-23T00:52:07;14.52;;;6.53;;
55784;SDS011;41709;52.536;5.688;2023-05-23T00:54:33;13.63;;;7.10;;
55784;SDS011;41709;52.536;5.688;2023-05-23T00:57:00;12.65;;;6.05;;
55784;SDS011;41709;52.536;5.688;2023-05-23T00:59:26;14.10;;;5.93;;
55784;SDS011;41709;52.536;5.688;2023-05-23T01:01:53;15.10;;;6.90;;
55784;SDS011;41709;52.536;5.688;2023-05-23T01:04:21;11.57;;;6.30;;
55784;SDS011;41709;52.536;5.688;2023-05-23T01:06:50;14.63;;;6.57;;
55784;SDS011;41709;52.536;5.688;2023-05-23T01:09:17;12.43;;;6.35;;
55784;SDS011;41709;52.536;5.688;2023-05-23T01:11:49;14.57;;;8.02;;
55784;SDS011;41709;52.536;5.688;2023-05-23T01:14:31;13.60;;;6.53;;
55784;SDS011;41709;52.536;5.688;2023-05-23T01:17:04;15.82;;;6.88;;
55784;SDS011;41709;52.536;5.688;2023-05-23T01:22:12;13.77;;;5.70;;
55784;SDS011;41709;52.536;5.688;2023-05-23T01:24:48;11.50;;;6.03;;
55784;SDS011;41709;52.536;5.688;2023-05-23T01:27:24;9.32;;;5.20;;
55784;SDS011;41709;52.536;5.688;2023-05-23T01:30:10;9.55;;;5.60;;
55784;SDS011;41709;52.536;5.688;2023-05-23T01:32:37;9.05;;;5.72;;
55784;SDS011;41709;52.536;5.688;2023-05-23T01:35:04;11.32;;;5.85;;
55784;SDS011;41709;52.536;5.688;2023-05-23T01:37:30;16.33;;;6.05;;
55784;SDS011;41709;52.536;5.688;2023-05-23T01:39:55;17.38;;;6.35;;
55784;SDS011;41709;52.536;5.688;2023-05-23T01:42:21;15.80;;;6.43;;
55784;SDS011;41709;52.536;5.688;2023-05-23T01:44:47;15.00;;;6.68;;
55784;SDS011;41709;52.536;5.688;2023-05-23T01:47:12;16.35;;;6.50;;
55784;SDS011;41709;52.536;5.688;2023-05-23T01:49:39;18.98;;;7.70;;
55784;SDS011;41709;52.536;5.688;2023-05-23T01:52:08;17.13;;;7.50;;
55784;SDS011;41709;52.536;5.688;2023-05-23T01:54:35;21.35;;;9.38;;
55784;SDS011;41709;52.536;5.688;2023-05-23T01:57:02;17.25;;;6.55;;
55784;SDS011;41709;52.536;5.688;2023-05-23T01:59:29;16.10;;;7.32;;
55784;SDS011;41709;52.536;5.688;2023-05-23T02:01:54;14.25;;;6.88;;
55784;SDS011;41709;52.536;5.688;2023-05-23T02:04:20;15.35;;;6.63;;
55784;SDS011;41709;52.536;5.688;2023-05-23T02:06:46;16.55;;;6.78;;
55784;SDS011;41709;52.536;5.688;2023-05-23T02:09:11;16.80;;;7.60;;
55784;SDS011;41709;52.536;5.688;2023-05-23T02:11:37;16.52;;;6.15;;
55784;SDS011;41709;52.536;5.688;2023-05-23T02:14:03;17.60;;;6.25;;
55784;SDS011;41709;52.536;5.688;2023-05-23T02:16:28;17.98;;;7.47;;
55784;SDS011;41709;52.536;5.688;2023-05-23T02:18:54;20.00;;;7.28;;
55784;SDS011;41709;52.536;5.688;2023-05-23T02:21:21;17.00;;;6.68;;
55784;SDS011;41709;52.536;5.688;2023-05-23T02:23:47;18.98;;;7.85;;
55784;SDS011;41709;52.536;5.688;2023-05-23T02:26:12;20.60;;;6.82;;
55784;SDS011;41709;52.536;5.688;2023-05-23T02:28:38;13.35;;;5.65;;
55784;SDS011;41709;52.536;5.688;2023-05-23T02:31:03;16.20;;;6.95;;
55784;SDS011;41709;52.536;5.688;2023-05-23T02:33:29;16.42;;;6.25;;
55784;SDS011;41709;52.536;5.688;2023-05-23T02:35:55;19.35;;;6.35;;
55784;SDS011;41709;52.536;5.688;2023-05-23T02:38:20;16.63;;;7.53;;
55784;SDS011;41709;52.536;5.688;2023-05-23T02:40:46;12.10;;;6.03;;
55784;SDS011;41709;52.536;5.688;2023-05-23T02:43:14;11.07;;;6.18;;
55784;SDS011;41709;52.536;5.688;2023-05-23T02:45:39;16.17;;;6.47;;
55784;SDS011;41709;52.536;5.688;2023-05-23T02:48:05;15.85;;;6.70;;
55784;SDS011;41709;52.536;5.688;2023-05-23T02:50:30;17.05;;;7.05;;
55784;SDS011;41709;52.536;5.688;2023-05-23T02:52:56;20.40;;;7.70;;
55784;SDS011;41709;52.536;5.688;2023-05-23T02:55:21;23.17;;;8.05;;
55784;SDS011;41709;52.536;5.688;2023-05-23T02:57:47;18.95;;;7.10;;
55784;SDS011;41709;52.536;5.688;2023-05-23T03:00:13;19.13;;;6.55;;
55784;SDS011;41709;52.536;5.688;2023-05-23T03:02:39;15.50;;;5.72;;
55784;SDS011;41709;52.536;5.688;2023-05-23T03:05:05;15.40;;;6.03;;
55784;SDS011;41709;52.536;5.688;2023-05-23T03:07:31;19.60;;;7.63;;
55784;SDS011;41709;52.536;5.688;2023-05-23T03:09:57;17.42;;;7.10;;
55784;SDS011;41709;52.536;5.688;2023-05-23T03:12:23;16.17;;;6.70;;
55784;SDS011;41709;52.536;5.688;2023-05-23T03:14:49;21.88;;;7.07;;
55784;SDS011;41709;52.536;5.688;2023-05-23T03:17:14;14.55;;;6.63;;
55784;SDS011;41709;52.536;5.688;2023-05-23T03:19:40;16.15;;;6.40;;
55784;SDS011;41709;52.536;5.688;2023-05-23T03:22:05;22.92;;;6.40;;
55784;SDS011;41709;52.536;5.688;2023-05-23T03:24:31;14.23;;;6.82;;
55784;SDS011;41709;52.536;5.688;2023-05-23T03:26:56;30.23;;;9.13;;
55784;SDS011;41709;52.536;5.688;2023-05-23T03:29:22;27.20;;;7.88;;
55784;SDS011;41709;52.536;5.688;2023-05-23T03:31:47;22.25;;;7.18;;
55784;SDS011;41709;52.536;5.688;2023-05-23T03:34:13;19.80;;;8.10;;
55784;SDS011;41709;52.536;5.688;2023-05-23T03:36:39;17.33;;;7.72;;
55784;SDS011;41709;52.536;5.688;2023-05-23T03:39:05;18.23;;;7.82;;
55784;SDS011;41709;52.536;5.688;2023-05-23T03:41:30;21.20;;;8.40;;
55784;SDS011;41709;52.536;5.688;2023-05-23T03:43:56;21.60;;;5.70;;
55784;SDS011;41709;52.536;5.688;2023-05-23T03:46:21;15.40;;;6.43;;
55784;SDS011;41709;52.536;5.688;2023-05-23T03:48:47;23.23;;;6.15;;
55784;SDS011;41709;52.536;5.688;2023-05-23T03:51:13;19.27;;;7.57;;
55784;SDS011;41709;52.536;5.688;2023-05-23T03:53:38;16.70;;;6.72;;
55784;SDS011;41709;52.536;5.688;2023-05-23T03:56:04;16.42;;;6.10;;
55784;SDS011;41709;52.536;5.688;2023-05-23T03:58:30;17.30;;;5.78;;
55784;SDS011;41709;52.536;5.688;2023-05-23T04:00:56;20.05;;;7.47;;
55784;SDS011;41709;52.536;5.688;2023-05-23T04:03:21;20.38;;;5.85;;
55784;SDS011;41709;52.536;5.688;2023-05-23T04:05:47;20.05;;;7.53;;
55784;SDS011;41709;52.536;5.688;2023-05-23T04:08:13;15.23;;;5.38;;
55784;SDS011;41709;52.536;5.688;2023-05-23T04:10:39;13.05;;;5.30;;
55784;SDS011;41709;52.536;5.688;2023-05-23T04:13:05;16.73;;;5.85;;
55784;SDS011;41709;52.536;5.688;2023-05-23T04:15:30;11.30;;;4.28;;
55784;SDS011;41709;52.536;5.688;2023-05-23T04:17:58;16.85;;;5.10;;
55784;SDS011;41709;52.536;5.688;2023-05-23T04:20:24;15.65;;;4.80;;
55784;SDS011;41709;52.536;5.688;2023-05-23T04:22:49;12.55;;;4.93;;
55784;SDS011;41709;52.536;5.688;2023-05-23T04:25:15;8.95;;;3.75;;
55784;SDS011;41709;52.536;5.688;2023-05-23T04:27:42;12.98;;;5.32;;
55784;SDS011;41709;52.536;5.688;2023-05-23T04:30:08;15.73;;;4.47;;
55784;SDS011;41709;52.536;5.688;2023-05-23T04:32:34;15.07;;;4.90;;
55784;SDS011;41709;52.536;5.688;2023-05-23T04:35:00;16.60;;;4.30;;
55784;SDS011;41709;52.536;5.688;2023-05-23T04:37:28;10.50;;;4.43;;
55784;SDS011;41709;52.536;5.688;2023-05-23T04:39:56;12.70;;;5.25;;
55784;SDS011;41709;52.536;5.688;2023-05-23T04:42:23;16.40;;;4.95;;
55784;SDS011;41709;52.536;5.688;2023-05-23T04:44:49;16.80;;;4.97;;
55784;SDS011;41709;52.536;5.688;2023-05-23T04:47:15;14.18;;;4.38;;
55784;SDS011;41709;52.536;5.688;2023-05-23T04:49:41;10.27;;;4.80;;
55784;SDS011;41709;52.536;5.688;2023-05-23T04:52:07;11.57;;;5.38;;
55784;SDS011;41709;52.536;5.688;2023-05-23T04:54:32;12.38;;;4.45;;
55784;SDS011;41709;52.536;5.688;2023-05-23T04:56:59;16.60;;;5.05;;
55784;SDS011;41709;52.536;5.688;2023-05-23T04:59:24;13.23;;;4.20;;
55784;SDS011;41709;52.536;5.688;2023-05-23T05:01:50;14.30;;;4.47;;
55784;SDS011;41709;52.536;5.688;2023-05-23T05:04:16;12.73;;;4.38;;
55784;SDS011;41709;52.536;5.688;2023-05-23T05:06:41;15.07;;;4.97;;
55784;SDS011;41709;52.536;5.688;2023-05-23T05:09:07;12.85;;;4.70;;
55784;SDS011;41709;52.536;5.688;2023-05-23T05:11:32;13.23;;;4.72;;
55784;SDS011;41709;52.536;5.688;2023-05-23T05:13:58;11.90;;;4.28;;
55784;SDS011;41709;52.536;5.688;2023-05-23T05:16:24;14.00;;;4.05;;
55784;SDS011;41709;52.536;5.688;2023-05-23T05:18:49;11.90;;;4.32;;
55784;SDS011;41709;52.536;5.688;2023-05-23T05:21:15;16.10;;;4.32;;
55784;SDS011;41709;52.536;5.688;2023-05-23T05:23:40;6.50;;;3.58;;
55784;SDS011;41709;52.536;5.688;2023-05-23T05:26:07;9.40;;;4.22;;
55784;SDS011;41709;52.536;5.688;2023-05-23T05:28:33;26.48;;;4.95;;
55784;SDS011;41709;52.536;5.688;2023-05-23T05:30:59;10.48;;;4.15;;
55784;SDS011;41709;52.536;5.688;2023-05-23T05:33:28;10.15;;;4.15;;
55784;SDS011;41709;52.536;5.688;2023-05-23T05:35:59;11.32;;;4.35;;
55784;SDS011;41709;52.536;5.688;2023-05-23T05:38:28;10.40;;;4.68;;
55784;SDS011;41709;52.536;5.688;2023-05-23T05:40:53;13.27;;;4.72;;
55784;SDS011;41709;52.536;5.688;2023-05-23T05:43:19;16.02;;;4.70;;
55784;SDS011;41709;52.536;5.688;2023-05-23T05:45:45;17.65;;;5.22;;
55784;SDS011;41709;52.536;5.688;2023-05-23T05:48:11;10.65;;;4.15;;
55784;SDS011;41709;52.536;5.688;2023-05-23T05:50:36;12.05;;;3.97;;
55784;SDS011;41709;52.536;5.688;2023-05-23T05:53:02;11.07;;;4.25;;
55784;SDS011;41709;52.536;5.688;2023-05-23T05:55:27;17.05;;;4.85;;
55784;SDS011;41709;52.536;5.688;2023-05-23T05:57:53;12.13;;;4.30;;
55784;SDS011;41709;52.536;5.688;2023-05-23T06:00:19;14.27;;;4.05;;
55784;SDS011;41709;52.536;5.688;2023-05-23T06:02:45;8.63;;;4.20;;
55784;SDS011;41709;52.536;5.688;2023-05-23T06:05:11;12.73;;;4.40;;
55784;SDS011;41709;52.536;5.688;2023-05-23T06:07:40;12.07;;;3.90;;
55784;SDS011;41709;52.536;5.688;2023-05-23T06:10:09;11.52;;;4.20;;
55784;SDS011;41709;52.536;5.688;2023-05-23T06:12:38;13.50;;;4.50;;
55784;SDS011;41709;52.536;5.688;2023-05-23T06:15:04;12.80;;;4.18;;
55784;SDS011;41709;52.536;5.688;2023-05-23T06:17:33;10.65;;;4.15;;
55784;SDS011;41709;52.536;5.688;2023-05-23T06:19:59;8.88;;;3.40;;
55784;SDS011;41709;52.536;5.688;2023-05-23T06:22:25;10.98;;;3.75;;
55784;SDS011;41709;52.536;5.688;2023-05-23T06:24:50;14.98;;;4.35;;
55784;SDS011;41709;52.536;5.688;2023-05-23T06:27:16;11.55;;;3.95;;
55784;SDS011;41709;52.536;5.688;2023-05-23T06:29:41;9.07;;;3.08;;
55784;SDS011;41709;52.536;5.688;2023-05-23T06:32:07;9.57;;;2.70;;
55784;SDS011;41709;52.536;5.688;2023-05-23T06:34:32;9.88;;;3.17;;
55784;SDS011;41709;52.536;5.688;2023-05-23T06:36:58;6.70;;;2.65;;
55784;SDS011;41709;52.536;5.688;2023-05-23T06:39:23;8.90;;;2.50;;
55784;SDS011;41709;52.536;5.688;2023-05-23T06:41:49;13.43;;;2.80;;
55784;SDS011;41709;52.536;5.688;2023-05-23T06:44:15;13.63;;;3.30;;
55784;SDS011;41709;52.536;5.688;2023-05-23T06:46:44;13.20;;;2.65;;
55784;SDS011;41709;52.536;5.688;2023-05-23T06:49:10;12.52;;;3.55;;
55784;SDS011;41709;52.536;5.688;2023-05-23T06:51:36;10.07;;;2.20;;
55784;SDS011;41709;52.536;5.688;2023-05-23T06:54:01;15.30;;;3.08;;
55784;SDS011;41709;52.536;5.688;2023-05-23T06:56:27;14.45;;;2.50;;
55784;SDS011;41709;52.536;5.688;2023-05-23T06:58:52;13.60;;;2.97;;
55784;SDS011;41709;52.536;5.688;2023-05-23T07:01:18;12.90;;;2.60;;
55784;SDS011;41709;52.536;5.688;2023-05-23T07:03:43;9.18;;;2.78;;
55784;SDS011;41709;52.536;5.688;2023-05-23T07:06:09;16.33;;;2.58;;
55784;SDS011;41709;52.536;5.688;2023-05-23T07:08:36;13.32;;;2.63;;
55784;SDS011;41709;52.536;5.688;2023-05-23T07:11:02;16.25;;;2.80;;
55784;SDS011;41709;52.536;5.688;2023-05-23T07:13:27;16.85;;;2.97;;
55784;SDS011;41709;52.536;5.688;2023-05-23T07:15:53;14.63;;;3.45;;
55784;SDS011;41709;52.536;5.688;2023-05-23T07:18:19;12.10;;;2.60;;
55784;SDS011;41709;52.536;5.688;2023-05-23T07:20:45;15.38;;;2.72;;
55784;SDS011;41709;52.536;5.688;2023-05-23T07:23:10;20.13;;;3.53;;
55784;SDS011;41709;52.536;5.688;2023-05-23T07:25:36;12.00;;;2.50;;
55784;SDS011;41709;52.536;5.688;2023-05-23T07:28:04;16.95;;;2.75;;
55784;SDS011;41709;52.536;5.688;2023-05-23T07:30:29;13.75;;;2.53;;
55784;SDS011;41709;52.536;5.688;2023-05-23T07:32:55;18.55;;;2.65;;
55784;SDS011;41709;52.536;5.688;2023-05-23T07:35:21;20.20;;;3.88;;
55784;SDS011;41709;52.536;5.688;2023-05-23T07:37:50;17.10;;;2.38;;
55784;SDS011;41709;52.536;5.688;2023-05-23T07:40:19;16.83;;;2.72;;
55784;SDS011;41709;52.536;5.688;2023-05-23T07:42:45;15.63;;;2.90;;
55784;SDS011;41709;52.536;5.688;2023-05-23T07:45:11;11.85;;;2.30;;
55784;SDS011;41709;52.536;5.688;2023-05-23T07:47:37;13.13;;;2.22;;
55784;SDS011;41709;52.536;5.688;2023-05-23T07:50:03;14.23;;;2.65;;
55784;SDS011;41709;52.536;5.688;2023-05-23T07:52:29;13.48;;;2.70;;
55784;SDS011;41709;52.536;5.688;2023-05-23T07:54:55;13.48;;;2.72;;
55784;SDS011;41709;52.536;5.688;2023-05-23T07:57:21;17.77;;;3.03;;
55784;SDS011;41709;52.536;5.688;2023-05-23T07:59:48;13.52;;;2.78;;
55784;SDS011;41709;52.536;5.688;2023-05-23T08:02:15;15.15;;;3.40;;
55784;SDS011;41709;52.536;5.688;2023-05-23T08:04:41;12.05;;;2.28;;
55784;SDS011;41709;52.536;5.688;2023-05-23T08:07:06;15.35;;;3.30;;
55784;SDS011;41709;52.536;5.688;2023-05-23T08:09:33;16.80;;;2.20;;
55784;SDS011;41709;52.536;5.688;2023-05-23T08:11:59;16.90;;;2.85;;
55784;SDS011;41709;52.536;5.688;2023-05-23T08:14:25;18.25;;;3.22;;
55784;SDS011;41709;52.536;5.688;2023-05-23T08:16:50;10.45;;;2.38;;
55784;SDS011;41709;52.536;5.688;2023-05-23T08:19:16;17.38;;;2.90;;
55784;SDS011;41709;52.536;5.688;2023-05-23T08:21:41;16.27;;;2.13;;
55784;SDS011;41709;52.536;5.688;2023-05-23T08:24:07;15.38;;;2.65;;
55784;SDS011;41709;52.536;5.688;2023-05-23T08:26:33;13.35;;;3.13;;
55784;SDS011;41709;52.536;5.688;2023-05-23T08:28:59;12.32;;;2.63;;
55784;SDS011;41709;52.536;5.688;2023-05-23T08:31:26;9.23;;;2.45;;
55784;SDS011;41709;52.536;5.688;2023-05-23T08:33:52;18.45;;;2.42;;
55784;SDS011;41709;52.536;5.688;2023-05-23T08:36:17;13.18;;;2.25;;
55784;SDS011;41709;52.536;5.688;2023-05-23T08:38:43;14.52;;;2.58;;
55784;SDS011;41709;52.536;5.688;2023-05-23T08:41:11;15.20;;;2.67;;
55784;SDS011;41709;52.536;5.688;2023-05-23T08:43:42;11.75;;;2.10;;
55784;SDS011;41709;52.536;5.688;2023-05-23T08:46:08;13.48;;;2.88;;
55784;SDS011;41709;52.536;5.688;2023-05-23T08:48:34;12.10;;;2.17;;
55784;SDS011;41709;52.536;5.688;2023-05-23T08:51:02;17.33;;;2.95;;
55784;SDS011;41709;52.536;5.688;2023-05-23T08:53:28;15.32;;;2.83;;
55784;SDS011;41709;52.536;5.688;2023-05-23T08:55:56;16.40;;;3.25;;
55784;SDS011;41709;52.536;5.688;2023-05-23T08:58:26;16.63;;;3.17;;
55784;SDS011;41709;52.536;5.688;2023-05-23T09:00:54;13.75;;;2.10;;
55784;SDS011;41709;52.536;5.688;2023-05-23T09:03:20;12.65;;;2.95;;
55784;SDS011;41709;52.536;5.688;2023-05-23T09:05:46;14.18;;;2.50;;
55784;SDS011;41709;52.536;5.688;2023-05-23T09:08:13;16.15;;;3.08;;
55784;SDS011;41709;52.536;5.688;2023-05-23T09:10:40;10.35;;;2.30;;
55784;SDS011;41709;52.536;5.688;2023-05-23T09:13:06;18.00;;;2.67;;
55784;SDS011;41709;52.536;5.688;2023-05-23T09:15:33;17.55;;;2.53;;
55784;SDS011;41709;52.536;5.688;2023-05-23T09:17:59;10.73;;;3.13;;
55784;SDS011;41709;52.536;5.688;2023-05-23T09:20:28;10.98;;;2.25;;
55784;SDS011;41709;52.536;5.688;2023-05-23T09:22:54;13.40;;;2.38;;
55784;SDS011;41709;52.536;5.688;2023-05-23T09:25:20;8.98;;;2.65;;
55784;SDS011;41709;52.536;5.688;2023-05-23T09:27:46;23.80;;;2.83;;
55784;SDS011;41709;52.536;5.688;2023-05-23T09:30:12;12.77;;;2.42;;
55784;SDS011;41709;52.536;5.688;2023-05-23T09:32:38;14.50;;;2.20;;
55784;SDS011;41709;52.536;5.688;2023-05-23T09:35:04;12.82;;;2.75;;
55784;SDS011;41709;52.536;5.688;2023-05-23T09:37:35;18.25;;;2.80;;
55784;SDS011;41709;52.536;5.688;2023-05-23T09:42:43;12.57;;;2.38;;
55784;SDS011;41709;52.536;5.688;2023-05-23T09:45:11;10.35;;;2.05;;
55784;SDS011;41709;52.536;5.688;2023-05-23T09:47:37;12.30;;;3.88;;
55784;SDS011;41709;52.536;5.688;2023-05-23T09:50:03;15.95;;;3.85;;
55784;SDS011;41709;52.536;5.688;2023-05-23T09:52:35;14.32;;;3.45;;
55784;SDS011;41709;52.536;5.688;2023-05-23T09:55:05;14.27;;;2.67;;
55784;SDS011;41709;52.536;5.688;2023-05-23T09:57:33;12.60;;;2.63;;
55784;SDS011;41709;52.536;5.688;2023-05-23T10:00:03;13.45;;;2.55;;
55784;SDS011;41709;52.536;5.688;2023-05-23T10:02:40;19.30;;;4.10;;
55784;SDS011;41709;52.536;5.688;2023-05-23T10:05:14;13.90;;;2.58;;
55784;SDS011;41709;52.536;5.688;2023-05-23T10:08:11;12.80;;;2.42;;
55784;SDS011;41709;52.536;5.688;2023-05-23T10:13:37;9.43;;;2.40;;
55784;SDS011;41709;52.536;5.688;2023-05-23T10:19:06;15.60;;;4.03;;
55784;SDS011;41709;52.536;5.688;2023-05-23T10:21:42;19.27;;;3.40;;
55784;SDS011;41709;52.536;5.688;2023-05-23T10:24:10;6.40;;;1.88;;
55784;SDS011;41709;52.536;5.688;2023-05-23T10:26:37;12.15;;;3.13;;
55784;SDS011;41709;52.536;5.688;2023-05-23T10:29:02;12.38;;;2.30;;
55784;SDS011;41709;52.536;5.688;2023-05-23T10:31:30;13.90;;;2.38;;
55784;SDS011;41709;52.536;5.688;2023-05-23T10:34:14;9.80;;;3.10;;
55784;SDS011;41709;52.536;5.688;2023-05-23T10:37:00;17.27;;;3.50;;
55784;SDS011;41709;52.536;5.688;2023-05-23T10:42:00;13.93;;;2.67;;
55784;SDS011;41709;52.536;5.688;2023-05-23T10:44:32;10.27;;;2.33;;
55784;SDS011;41709;52.536;5.688;2023-05-23T10:47:01;6.93;;;1.27;;
55784;SDS011;41709;52.536;5.688;2023-05-23T10:49:47;10.68;;;2.25;;
55784;SDS011;41709;52.536;5.688;2023-05-23T10:52:16;10.07;;;1.67;;
55784;SDS011;41709;52.536;5.688;2023-05-23T10:57:14;10.80;;;2.53;;
55784;SDS011;41709;52.536;5.688;2023-05-23T10:59:40;11.20;;;2.15;;
55784;SDS011;41709;52.536;5.688;2023-05-23T11:02:11;9.88;;;2.40;;
55784;SDS011;41709;52.536;5.688;2023-05-23T11:04:41;10.88;;;2.08;;
55784;SDS011;41709;52.536;5.688;2023-05-23T11:10:16;13.35;;;4.40;;
55784;SDS011;41709;52.536;5.688;2023-05-23T11:12:42;9.50;;;1.80;;
55784;SDS011;41709;52.536;5.688;2023-05-23T11:17:53;15.80;;;2.85;;
55784;SDS011;41709;52.536;5.688;2023-05-23T11:20:21;12.88;;;2.88;;
55784;SDS011;41709;52.536;5.688;2023-05-23T11:23:00;15.73;;;2.70;;
55784;SDS011;41709;52.536;5.688;2023-05-23T11:26:01;11.07;;;2.72;;
55784;SDS011;41709;52.536;5.688;2023-05-23T11:28:20;7.72;;;2.30;;
55784;SDS011;41709;52.536;5.688;2023-05-23T11:30:47;12.07;;;2.45;;
55784;SDS011;41709;52.536;5.688;2023-05-23T11:33:14;10.13;;;1.83;;
55784;SDS011;41709;52.536;5.688;2023-05-23T11:38:07;10.73;;;1.67;;
55784;SDS011;41709;52.536;5.688;2023-05-23T11:40:34;7.07;;;1.60;;
55784;SDS011;41709;52.536;5.688;2023-05-23T11:43:01;8.38;;;1.67;;
55784;SDS011;41709;52.536;5.688;2023-05-23T11:45:29;9.45;;;2.50;;
55784;SDS011;41709;52.536;5.688;2023-05-23T11:47:56;11.57;;;2.72;;
55784;SDS011;41709;52.536;5.688;2023-05-23T11:50:21;9.85;;;1.40;;
55784;SDS011;41709;52.536;5.688;2023-05-23T11:52:48;14.40;;;2.20;;
55784;SDS011;41709;52.536;5.688;2023-05-23T11:55:20;13.00;;;2.33;;
55784;SDS011;41709;52.536;5.688;2023-05-23T11:57:47;9.27;;;1.88;;
55784;SDS011;41709;52.536;5.688;2023-05-23T12:00:13;12.80;;;2.25;;
55784;SDS011;41709;52.536;5.688;2023-05-23T12:02:40;10.02;;;1.90;;
55784;SDS011;41709;52.536;5.688;2023-05-23T12:05:10;9.23;;;1.90;;
55784;SDS011;41709;52.536;5.688;2023-05-23T12:07:41;12.82;;;1.80;;
55784;SDS011;41709;52.536;5.688;2023-05-23T12:10:08;9.20;;;1.80;;
55784;SDS011;41709;52.536;5.688;2023-05-23T12:12:34;12.48;;;2.00;;
55784;SDS011;41709;52.536;5.688;2023-05-23T12:15:01;10.02;;;1.90;;
55784;SDS011;41709;52.536;5.688;2023-05-23T12:17:26;10.30;;;1.90;;
55784;SDS011;41709;52.536;5.688;2023-05-23T12:19:52;12.80;;;1.70;;
55784;SDS011;41709;52.536;5.688;2023-05-23T12:22:24;9.68;;;1.90;;
55784;SDS011;41709;52.536;5.688;2023-05-23T12:24:53;10.88;;;1.73;;
55784;SDS011;41709;52.536;5.688;2023-05-23T12:27:25;14.95;;;2.20;;
55784;SDS011;41709;52.536;5.688;2023-05-23T12:30:08;12.43;;;2.42;;
55784;SDS011;41709;52.536;5.688;2023-05-23T12:32:41;13.23;;;2.65;;
55784;SDS011;41709;52.536;5.688;2023-05-23T12:35:08;11.32;;;2.80;;
55784;SDS011;41709;52.536;5.688;2023-05-23T12:37:39;11.77;;;2.67;;
55784;SDS011;41709;52.536;5.688;2023-05-23T12:42:53;13.07;;;2.65;;
55784;SDS011;41709;52.536;5.688;2023-05-23T12:45:20;10.63;;;2.00;;
55784;SDS011;41709;52.536;5.688;2023-05-23T12:47:47;8.80;;;2.08;;
55784;SDS011;41709;52.536;5.688;2023-05-23T12:50:13;8.70;;;1.92;;
55784;SDS011;41709;52.536;5.688;2023-05-23T12:52:38;10.27;;;2.35;;
55784;SDS011;41709;52.536;5.688;2023-05-23T12:55:04;8.68;;;1.38;;
55784;SDS011;41709;52.536;5.688;2023-05-23T12:57:32;8.40;;;1.67;;
55784;SDS011;41709;52.536;5.688;2023-05-23T12:59:58;9.75;;;1.63;;
55784;SDS011;41709;52.536;5.688;2023-05-23T13:02:24;10.32;;;1.65;;
55784;SDS011;41709;52.536;5.688;2023-05-23T13:04:50;10.77;;;2.72;;
55784;SDS011;41709;52.536;5.688;2023-05-23T13:07:16;13.85;;;2.35;;
55784;SDS011;41709;52.536;5.688;2023-05-23T13:09:41;10.07;;;2.03;;
55784;SDS011;41709;52.536;5.688;2023-05-23T13:12:07;17.85;;;2.60;;
55784;SDS011;41709;52.536;5.688;2023-05-23T13:14:33;8.25;;;2.08;;
55784;SDS011;41709;52.536;5.688;2023-05-23T13:16:58;14.20;;;1.95;;
55784;SDS011;41709;52.536;5.688;2023-05-23T13:19:24;19.00;;;2.47;;
55784;SDS011;41709;52.536;5.688;2023-05-23T13:21:49;17.65;;;2.00;;
55784;SDS011;41709;52.536;5.688;2023-05-23T13:24:15;9.70;;;1.80;;
55784;SDS011;41709;52.536;5.688;2023-05-23T13:26:40;12.27;;;2.10;;
55784;SDS011;41709;52.536;5.688;2023-05-23T13:29:06;9.15;;;2.33;;
55784;SDS011;41709;52.536;5.688;2023-05-23T13:31:31;10.70;;;1.80;;
55784;SDS011;41709;52.536;5.688;2023-05-23T13:33:57;8.95;;;2.58;;
55784;SDS011;41709;52.536;5.688;2023-05-23T13:36:22;10.43;;;1.83;;
55784;SDS011;41709;52.536;5.688;2023-05-23T13:38:49;12.75;;;2.53;;
55784;SDS011;41709;52.536;5.688;2023-05-23T13:41:15;11.70;;;2.15;;
55784;SDS011;41709;52.536;5.688;2023-05-23T13:43:41;11.07;;;2.70;;
55784;SDS011;41709;52.536;5.688;2023-05-23T13:46:06;9.23;;;1.77;;
55784;SDS011;41709;52.536;5.688;2023-05-23T13:48:32;12.15;;;1.67;;
55784;SDS011;41709;52.536;5.688;2023-05-23T13:50:57;10.85;;;2.05;;
55784;SDS011;41709;52.536;5.688;2023-05-23T13:53:23;10.57;;;1.65;;
55784;SDS011;41709;52.536;5.688;2023-05-23T13:55:49;8.05;;;1.70;;
55784;SDS011;41709;52.536;5.688;2023-05-23T13:58:14;15.05;;;2.70;;
55784;SDS011;41709;52.536;5.688;2023-05-23T14:00:40;9.95;;;2.00;;
55784;SDS011;41709;52.536;5.688;2023-05-23T14:03:06;6.00;;;1.45;;
55784;SDS011;41709;52.536;5.688;2023-05-23T14:05:32;6.22;;;1.67;;
55784;SDS011;41709;52.536;5.688;2023-05-23T14:07:58;9.95;;;2.17;;
55784;SDS011;41709;52.536;5.688;2023-05-23T14:10:23;10.95;;;2.15;;
55784;SDS011;41709;52.536;5.688;2023-05-23T14:12:49;8.57;;;2.00;;
55784;SDS011;41709;52.536;5.688;2023-05-23T14:15:15;10.82;;;1.65;;
55784;SDS011;41709;52.536;5.688;2023-05-23T14:17:40;6.88;;;1.65;;
55784;SDS011;41709;52.536;5.688;2023-05-23T14:20:06;5.88;;;1.40;;
55784;SDS011;41709;52.536;5.688;2023-05-23T14:22:32;5.75;;;1.00;;
55784;SDS011;41709;52.536;5.688;2023-05-23T14:24:58;4.22;;;1.30;;
55784;SDS011;41709;52.536;5.688;2023-05-23T14:27:23;7.72;;;1.45;;
55784;SDS011;41709;52.536;5.688;2023-05-23T14:29:51;5.10;;;1.88;;
55784;SDS011;41709;52.536;5.688;2023-05-23T14:32:16;7.93;;;1.98;;
55784;SDS011;41709;52.536;5.688;2023-05-23T14:34:42;6.85;;;1.90;;
55784;SDS011;41709;52.536;5.688;2023-05-23T14:37:07;9.13;;;1.67;;
55784;SDS011;41709;52.536;5.688;2023-05-23T14:39:33;7.43;;;1.63;;
55784;SDS011;41709;52.536;5.688;2023-05-23T14:41:59;7.15;;;1.80;;
55784;SDS011;41709;52.536;5.688;2023-05-23T14:44:26;10.48;;;1.83;;
55784;SDS011;41709;52.536;5.688;2023-05-23T14:46:51;8.57;;;1.50;;
55784;SDS011;41709;52.536;5.688;2023-05-23T14:49:17;11.35;;;1.65;;
55784;SDS011;41709;52.536;5.688;2023-05-23T14:51:43;9.57;;;1.85;;
55784;SDS011;41709;52.536;5.688;2023-05-23T14:54:09;6.47;;;2.67;;
55784;SDS011;41709;52.536;5.688;2023-05-23T14:56:34;11.35;;;3.95;;
55784;SDS011;41709;52.536;5.688;2023-05-23T14:59:01;8.20;;;1.92;;
55784;SDS011;41709;52.536;5.688;2023-05-23T15:01:28;7.60;;;1.42;;